createdAt,value
2024-01-05T00:00:59.895Z,4.60
2024-01-05T00:03:01.660Z,4.15
2024-01-05T00:05:21.916Z,3.75
2024-01-05T00:07:23.527Z,3.88
2024-01-05T00:09:25.204Z,6.05
2024-01-05T00:11:27.122Z,4.70
2024-01-05T00:13:28.820Z,4.35
2024-01-05T00:15:30.507Z,4.20
2024-01-05T00:17:32.443Z,3.50
2024-01-05T00:19:34.488Z,3.35
2024-01-05T00:21:55.148Z,3.88
2024-01-05T00:23:57.975Z,3.17
2024-01-05T00:26:03.218Z,4.25
2024-01-05T00:28:05.014Z,4.13
2024-01-05T00:30:07.539Z,3.50
2024-01-05T00:32:09.269Z,4.07
2024-01-05T00:34:29.540Z,3.80
2024-01-05T00:36:31.231Z,5.10
2024-01-05T00:38:32.900Z,4.72
2024-01-05T00:40:34.437Z,5.22
2024-01-05T00:42:36.014Z,5.93
2024-01-05T00:44:37.655Z,6.05
2024-01-05T00:46:57.601Z,4.43
2024-01-05T00:48:59.522Z,5.63
2024-01-05T00:51:01.606Z,4.97
2024-01-05T00:53:03.236Z,8.35
2024-01-05T00:55:05.023Z,6.25
2024-01-05T00:57:07.957Z,6.22
2024-01-05T01:01:30.910Z,5.57
2024-01-05T01:03:32.612Z,6.28
2024-01-05T01:05:34.274Z,6.95
2024-01-05T01:07:54.724Z,6.90
2024-01-05T01:09:56.451Z,6.93
2024-01-05T01:11:58.034Z,8.00
2024-01-05T01:13:59.811Z,7.47
2024-01-05T01:16:01.422Z,7.57
2024-01-05T01:18:21.684Z,9.57
2024-01-05T01:20:23.398Z,9.15
2024-01-05T01:22:25.236Z,9.30
2024-01-05T01:24:26.885Z,9.82
2024-01-05T01:26:28.466Z,9.70
2024-01-05T01:28:30.666Z,10.38
2024-01-05T01:30:32.485Z,10.30
2024-01-05T01:32:34.211Z,10.77
2024-01-05T01:34:36.337Z,10.10
2024-01-05T01:36:38.061Z,8.88
2024-01-05T01:38:39.836Z,7.93
2024-01-05T01:40:45.667Z,7.90
2024-01-05T01:42:47.665Z,8.98
2024-01-05T01:44:49.279Z,8.07
2024-01-05T01:47:09.263Z,8.48
2024-01-05T01:49:11.146Z,7.20
2024-01-05T01:51:13.238Z,6.85
2024-01-05T01:53:15.154Z,6.38
2024-01-05T01:55:18.036Z,4.78
2024-01-05T01:57:38.842Z,4.72
2024-01-05T02:00:01.336Z,4.97
2024-01-05T02:02:05.445Z,5.72
2024-01-05T02:04:10.627Z,5.18
2024-01-05T02:06:14.677Z,4.25
2024-01-05T02:08:18.845Z,6.07
2024-01-05T02:12:26.522Z,4.10
2024-01-05T02:14:29.951Z,4.28
2024-01-05T02:16:33.764Z,3.78
2024-01-05T02:18:38.348Z,5.05
2024-01-05T02:20:47.015Z,5.05
2024-01-05T02:23:10.480Z,3.17
2024-01-05T02:25:31.222Z,4.55
2024-01-05T02:27:53.332Z,3.58
2024-01-05T02:29:56.672Z,3.83
2024-01-05T02:32:00.655Z,3.47
2024-01-05T02:34:04.800Z,4.20
2024-01-05T02:36:08.711Z,3.65
2024-01-05T02:38:12.347Z,3.45
2024-01-05T02:40:16.529Z,4.78
2024-01-05T02:42:20.272Z,2.70
2024-01-05T02:44:24.338Z,3.67
2024-01-05T02:46:28.335Z,2.88
2024-01-05T02:48:31.593Z,2.90
2024-01-05T02:50:33.779Z,3.00
2024-01-05T02:52:35.350Z,4.30
2024-01-05T02:54:39.102Z,3.35
2024-01-05T02:56:41.097Z,3.28
2024-01-05T02:58:42.924Z,3.13
2024-01-05T03:00:44.771Z,2.53
2024-01-05T03:02:46.462Z,2.95
2024-01-05T03:04:48.311Z,2.50
2024-01-05T03:06:50.158Z,2.45
2024-01-05T03:08:51.902Z,2.10
2024-01-05T03:10:53.891Z,3.00
2024-01-05T03:13:14.105Z,2.30
2024-01-05T03:15:37.690Z,3.63
2024-01-05T03:17:39.422Z,2.67
2024-01-05T03:19:41.120Z,3.13
2024-01-05T03:22:01.715Z,2.40
2024-01-05T03:24:03.428Z,3.05
2024-01-05T03:26:23.724Z,1.85
2024-01-05T03:28:44.094Z,2.30
2024-01-05T03:30:45.853Z,2.88
2024-01-05T03:32:47.644Z,2.45
2024-01-05T03:34:49.274Z,2.22
2024-01-05T03:37:09.457Z,2.05
2024-01-05T03:39:11.352Z,3.03
2024-01-05T03:41:31.374Z,2.38
2024-01-05T03:43:32.989Z,2.72
2024-01-05T03:45:34.860Z,5.10
2024-01-05T03:47:55.252Z,3.65
2024-01-05T03:49:56.948Z,1.70
2024-01-05T03:51:58.841Z,2.47
2024-01-05T03:54:01.668Z,1.63
2024-01-05T03:56:04.227Z,2.28
2024-01-05T03:58:05.779Z,1.80
2024-01-05T04:00:26.103Z,2.17
2024-01-05T04:02:46.398Z,1.55
2024-01-05T04:04:48.223Z,2.05
2024-01-05T04:06:52.295Z,1.95
2024-01-05T04:08:54.127Z,1.83
2024-01-05T04:10:55.735Z,2.47
2024-01-05T04:12:57.395Z,2.00
2024-01-05T04:14:58.984Z,1.35
2024-01-05T04:17:00.647Z,3.75
2024-01-05T04:19:20.655Z,1.55
2024-01-05T04:21:22.400Z,2.88
2024-01-05T04:23:23.976Z,1.70
2024-01-05T04:25:25.515Z,1.80
2024-01-05T04:27:27.178Z,1.55
2024-01-05T04:29:28.904Z,2.53
2024-01-05T04:31:30.505Z,3.65
2024-01-05T04:33:32.302Z,1.80
2024-01-05T04:35:52.581Z,2.63
2024-01-05T04:37:54.736Z,1.52
2024-01-05T04:39:56.359Z,1.45
2024-01-05T04:41:58.052Z,1.55
2024-01-05T04:43:59.612Z,1.45
2024-01-05T04:46:01.433Z,1.65
2024-01-05T04:48:21.590Z,1.48
2024-01-05T04:50:23.285Z,1.75
2024-01-05T04:52:43.206Z,2.08
2024-01-05T04:54:44.826Z,1.77
2024-01-05T04:56:46.427Z,1.67
2024-01-05T04:58:48.114Z,1.48
2024-01-05T05:00:49.873Z,1.52
2024-01-05T05:02:51.610Z,1.88
2024-01-05T05:04:53.193Z,1.23
2024-01-05T05:06:58.158Z,1.73
2024-01-05T05:09:00.122Z,1.52
2024-01-05T05:11:03.681Z,3.38
2024-01-05T05:13:07.768Z,1.38
2024-01-05T05:15:12.617Z,1.33
2024-01-05T05:17:16.596Z,1.50
2024-01-05T05:19:20.873Z,1.67
2024-01-05T05:23:28.794Z,1.77
2024-01-05T05:25:31.480Z,1.63
2024-01-05T05:27:33.989Z,1.73
2024-01-05T05:29:37.648Z,2.05
2024-01-05T05:31:41.994Z,1.30
2024-01-05T05:33:46.234Z,2.72
2024-01-05T05:36:08.687Z,1.25
2024-01-05T05:38:31.023Z,1.20
2024-01-05T05:40:35.038Z,1.67
2024-01-05T05:42:57.478Z,3.60
2024-01-05T05:45:01.530Z,1.50
2024-01-05T05:47:05.696Z,1.55
2024-01-05T05:49:09.615Z,1.27
2024-01-05T05:53:17.997Z,1.50
2024-01-05T05:55:40.352Z,1.83
2024-01-05T05:57:42.621Z,2.25
2024-01-05T05:59:44.187Z,1.67
2024-01-05T06:01:46.360Z,1.65
2024-01-05T06:03:48.066Z,1.85
2024-01-05T06:05:49.890Z,1.73
2024-01-05T06:07:51.515Z,1.38
2024-01-05T06:09:53.160Z,1.75
2024-01-05T06:12:14.122Z,1.60
2024-01-05T06:14:34.287Z,1.30
2024-01-05T06:16:35.884Z,1.63
2024-01-05T06:18:37.624Z,1.27
2024-01-05T06:20:39.291Z,1.67
2024-01-05T06:22:40.882Z,1.08
2024-01-05T06:24:42.649Z,1.55
2024-01-05T06:26:44.258Z,3.30
2024-01-05T06:28:45.797Z,0.90
2024-01-05T06:31:06.749Z,1.27
2024-01-05T06:33:08.836Z,0.98
2024-01-05T06:35:11.419Z,2.10
2024-01-05T06:37:12.967Z,1.38
2024-01-05T06:39:14.595Z,1.80
2024-01-05T06:41:16.349Z,1.00
2024-01-05T06:43:17.980Z,1.48
2024-01-05T06:45:19.554Z,1.48
2024-01-05T06:47:21.239Z,1.50
2024-01-05T06:49:23.221Z,0.73
2024-01-05T06:51:25.107Z,2.28
2024-01-05T06:53:26.727Z,1.30
2024-01-05T06:55:28.697Z,1.38
2024-01-05T06:57:32.511Z,1.30
2024-01-05T06:59:36.878Z,1.23
2024-01-05T07:01:38.605Z,1.13
2024-01-05T07:03:58.842Z,1.27
2024-01-05T07:06:19.221Z,1.60
2024-01-05T07:08:20.852Z,1.65
2024-01-05T07:10:22.428Z,1.10
2024-01-05T07:12:24.394Z,2.15
2024-01-05T07:14:27.194Z,1.83
2024-01-05T07:16:48.180Z,3.13
2024-01-05T07:18:50.141Z,3.38
2024-01-05T07:20:51.831Z,3.00
2024-01-05T07:22:53.441Z,6.40
2024-01-05T07:24:55.350Z,7.57
2024-01-05T07:26:57.705Z,7.22
2024-01-05T07:28:59.432Z,4.90
2024-01-05T07:31:04.039Z,8.00
2024-01-05T07:33:05.806Z,6.35
2024-01-05T07:35:26.089Z,5.95
2024-01-05T07:37:47.468Z,4.05
2024-01-05T07:39:49.117Z,4.53
2024-01-05T07:41:50.951Z,4.30
2024-01-05T07:43:52.678Z,1.60
2024-01-05T07:45:55.242Z,2.75
2024-01-05T07:47:59.443Z,2.25
2024-01-05T07:50:01.260Z,1.95
2024-01-05T07:52:02.830Z,1.83
2024-01-05T07:54:04.407Z,2.55
2024-01-05T07:56:24.953Z,4.57
2024-01-05T07:58:45.633Z,4.30
2024-01-05T08:00:47.752Z,3.53
2024-01-05T08:03:08.242Z,3.90
2024-01-05T08:05:12.036Z,5.25
2024-01-05T08:07:14.304Z,3.85
2024-01-05T08:09:16.740Z,4.30
2024-01-05T08:11:18.646Z,5.55
2024-01-05T08:13:25.590Z,5.10
2024-01-05T08:15:27.819Z,3.45
2024-01-05T08:17:31.626Z,3.45
2024-01-05T08:19:35.832Z,2.65
2024-01-05T08:21:40.228Z,2.13
2024-01-05T08:23:44.372Z,2.10
2024-01-05T08:25:49.337Z,1.90
2024-01-05T08:27:52.003Z,1.88
2024-01-05T08:29:55.456Z,1.67
2024-01-05T08:32:01.975Z,1.80
2024-01-05T08:34:05.787Z,1.90
2024-01-05T08:36:30.464Z,2.33
2024-01-05T08:38:33.735Z,1.52
2024-01-05T08:40:37.339Z,2.30
2024-01-05T08:42:43.458Z,2.00
2024-01-05T08:44:47.891Z,3.45
2024-01-05T08:48:53.036Z,8.90
2024-01-05T08:50:57.359Z,7.57
2024-01-05T08:55:05.585Z,8.02
2024-01-05T08:57:11.974Z,10.35
2024-01-05T08:59:14.306Z,14.60
2024-01-05T09:01:18.835Z,13.68
2024-01-05T09:03:23.561Z,16.60
2024-01-05T09:05:25.773Z,15.75
2024-01-05T09:07:27.502Z,17.40
2024-01-05T09:09:29.175Z,18.35
2024-01-05T09:11:30.792Z,14.98
2024-01-05T09:13:51.028Z,14.52
2024-01-05T09:15:52.693Z,12.20
2024-01-05T09:17:54.546Z,9.02
2024-01-05T09:19:56.240Z,6.22
2024-01-05T09:21:57.822Z,4.70
2024-01-05T09:23:59.527Z,5.15
2024-01-05T09:26:01.108Z,3.70
2024-01-05T09:28:05.061Z,3.47
2024-01-05T09:30:07.970Z,3.17
2024-01-05T09:32:10.405Z,3.25
2024-01-05T09:34:12.333Z,2.65
2024-01-05T09:36:16.009Z,3.80
2024-01-05T09:38:19.279Z,2.45
2024-01-05T09:40:21.588Z,3.22
2024-01-05T09:42:24.364Z,3.05
2024-01-05T09:44:26.056Z,2.88
2024-01-05T09:46:29.263Z,2.78
2024-01-05T09:48:54.635Z,1.83
2024-01-05T09:50:57.440Z,3.42
2024-01-05T09:52:59.397Z,2.88
2024-01-05T09:55:01.077Z,2.72
2024-01-05T09:57:04.159Z,1.67
2024-01-05T09:59:06.606Z,2.35
2024-01-05T10:01:12.418Z,2.45
2024-01-05T10:03:21.419Z,1.52
2024-01-05T10:05:25.411Z,2.08
2024-01-05T10:07:28.546Z,1.70
2024-01-05T10:09:33.107Z,1.42
2024-01-05T10:11:37.785Z,2.10
2024-01-05T10:13:53.752Z,1.20
2024-01-05T10:16:18.234Z,1.45
2024-01-05T10:18:23.179Z,1.70
2024-01-05T10:20:28.371Z,1.77
2024-01-05T10:22:30.304Z,2.03
2024-01-05T10:24:32.385Z,1.90
2024-01-05T10:26:35.009Z,1.55
2024-01-05T10:28:39.108Z,2.40
2024-01-05T10:30:40.883Z,2.13
2024-01-05T10:32:42.605Z,1.42
2024-01-05T10:34:48.178Z,2.55
2024-01-05T10:36:49.960Z,1.50
2024-01-05T10:38:52.097Z,1.65
2024-01-05T10:41:05.357Z,2.08
2024-01-05T10:43:20.022Z,2.35
2024-01-05T10:45:38.163Z,3.35
2024-01-05T10:47:39.967Z,1.67
2024-01-05T10:50:00.830Z,1.75
2024-01-05T10:52:03.447Z,1.58
2024-01-05T10:54:23.960Z,4.75
2024-01-05T10:56:27.825Z,5.85
2024-01-05T10:58:32.837Z,5.55
2024-01-05T11:00:39.503Z,20.55
2024-01-05T11:02:43.008Z,19.08
2024-01-05T11:04:46.555Z,12.02
2024-01-05T11:06:49.282Z,13.30
2024-01-05T11:09:16.912Z,7.10
2024-01-05T11:11:29.699Z,4.28
2024-01-05T11:13:43.589Z,3.17
2024-01-05T11:16:03.353Z,2.47
2024-01-05T11:18:17.261Z,1.90
2024-01-05T11:20:19.044Z,2.17
2024-01-05T11:22:41.881Z,1.60
2024-01-05T11:24:45.337Z,1.42
2024-01-05T11:26:49.367Z,1.55
2024-01-05T11:28:52.448Z,1.55
2024-01-05T11:31:01.387Z,1.13
2024-01-05T11:33:05.976Z,1.25
2024-01-05T11:37:33.999Z,1.35
2024-01-05T11:39:44.713Z,1.70
2024-01-05T11:41:48.655Z,0.95
2024-01-05T11:45:55.024Z,0.63
2024-01-05T11:47:59.304Z,1.13
2024-01-05T11:50:22.867Z,0.95
2024-01-05T11:52:27.321Z,1.20
2024-01-05T11:54:32.171Z,1.45
2024-01-05T11:56:36.228Z,1.50
2024-01-05T11:58:57.616Z,1.30
2024-01-05T12:01:02.194Z,1.38
2024-01-05T12:03:05.293Z,1.50
2024-01-05T12:05:07.146Z,1.77
2024-01-05T12:07:08.826Z,1.33
2024-01-05T12:09:10.506Z,1.40
2024-01-05T12:11:13.280Z,1.25
2024-01-05T12:13:21.285Z,0.70
2024-01-05T12:15:23.353Z,0.88
2024-01-05T12:17:25.032Z,1.15
2024-01-05T12:19:26.712Z,1.90
2024-01-05T12:21:28.448Z,1.20
2024-01-05T12:23:31.132Z,1.15
2024-01-05T12:25:33.552Z,1.38
2024-01-05T12:27:38.576Z,1.15
2024-01-05T12:29:58.841Z,1.13
2024-01-05T12:32:00.521Z,1.15
2024-01-05T12:34:03.559Z,1.10
2024-01-05T12:36:08.088Z,1.10
2024-01-05T12:40:31.908Z,0.88
2024-01-05T12:42:36.008Z,0.90
2024-01-05T12:44:37.585Z,1.17
2024-01-05T12:46:47.872Z,1.55
2024-01-05T12:48:50.166Z,1.23
2024-01-05T12:51:03.190Z,2.45
2024-01-05T12:53:21.600Z,0.80
2024-01-05T12:55:30.055Z,0.80
2024-01-05T12:57:33.277Z,0.65
2024-01-05T12:59:37.131Z,1.23
2024-01-05T13:01:38.952Z,0.93
2024-01-05T13:03:40.552Z,1.20
2024-01-05T13:05:42.447Z,0.80
2024-01-05T13:07:44.090Z,1.10
2024-01-05T13:09:45.854Z,1.13
2024-01-05T13:11:54.338Z,1.02
2024-01-05T13:13:56.741Z,0.90
2024-01-05T13:16:00.333Z,1.20
2024-01-05T13:18:02.902Z,1.25
2024-01-05T13:20:25.398Z,2.53
2024-01-05T13:22:27.154Z,2.58
2024-01-05T13:24:30.712Z,1.67
2024-01-05T13:26:32.467Z,2.42
2024-01-05T13:28:36.879Z,1.80
2024-01-05T13:30:39.286Z,1.15
2024-01-05T13:32:44.960Z,1.20
2024-01-05T13:34:46.769Z,1.27
2024-01-05T13:36:48.608Z,1.25
2024-01-05T13:38:50.320Z,1.48
2024-01-05T13:40:52.440Z,1.23
2024-01-05T13:42:54.427Z,1.83
2024-01-05T13:44:56.991Z,1.40
2024-01-05T13:46:58.983Z,1.48
2024-01-05T13:49:19.615Z,1.20
2024-01-05T13:51:21.377Z,1.67
2024-01-05T13:53:23.022Z,1.77
2024-01-05T13:55:25.192Z,1.83
2024-01-05T13:57:45.501Z,1.30
2024-01-05T13:59:47.207Z,1.17
2024-01-05T14:01:48.832Z,1.10
2024-01-05T14:03:50.634Z,1.70
2024-01-05T14:05:52.374Z,1.73
2024-01-05T14:07:53.951Z,1.08
2024-01-05T14:09:55.603Z,1.48
2024-01-05T14:11:57.287Z,1.17
2024-01-05T14:13:59.568Z,0.63
2024-01-05T14:16:01.323Z,1.35
2024-01-05T14:18:21.666Z,1.00
2024-01-05T14:20:23.440Z,1.15
2024-01-05T14:22:25.211Z,1.30
2024-01-05T14:24:27.064Z,0.90
2024-01-05T14:26:28.957Z,2.00
2024-01-05T14:28:30.597Z,0.68
2024-01-05T14:30:33.049Z,1.25
2024-01-05T14:32:35.555Z,1.02
2024-01-05T14:34:42.056Z,0.80
2024-01-05T14:36:45.534Z,0.88
2024-01-05T14:39:11.886Z,1.50
2024-01-05T14:41:15.216Z,1.02
2024-01-05T14:43:18.150Z,1.20
2024-01-05T14:45:20.877Z,1.35
2024-01-05T14:47:23.646Z,0.93
2024-01-05T14:49:27.451Z,1.00
2024-01-05T14:53:32.978Z,1.45
2024-01-05T14:55:35.287Z,1.20
2024-01-05T14:57:37.648Z,2.00
2024-01-05T14:59:59.671Z,1.48
2024-01-05T15:02:05.444Z,3.00
2024-01-05T15:04:08.411Z,3.65
2024-01-05T15:06:12.600Z,4.28
2024-01-05T15:08:33.475Z,4.38
2024-01-05T15:10:35.753Z,5.13
2024-01-05T15:12:37.365Z,3.30
2024-01-05T15:14:39.132Z,2.45
2024-01-05T15:16:41.913Z,1.92
2024-01-05T15:18:43.780Z,1.63
2024-01-05T15:21:06.366Z,1.75
2024-01-05T15:23:09.435Z,2.95
2024-01-05T15:25:18.197Z,16.65
2024-01-05T15:27:19.978Z,6.10
2024-01-05T15:29:22.206Z,5.75
2024-01-05T15:31:23.969Z,2.00
2024-01-05T15:33:25.860Z,2.05
2024-01-05T15:35:27.463Z,3.30
2024-01-05T15:37:30.005Z,2.30
2024-01-05T15:39:52.023Z,2.42
2024-01-05T15:41:55.703Z,3.05
2024-01-05T15:43:57.683Z,3.08
2024-01-05T15:45:59.303Z,1.98
2024-01-05T15:48:21.107Z,2.03
2024-01-05T15:50:41.530Z,1.23
2024-01-05T15:52:43.093Z,1.15
2024-01-05T15:55:04.757Z,1.80
2024-01-05T15:57:06.432Z,2.38
2024-01-05T15:59:09.622Z,2.33
2024-01-05T16:01:12.930Z,3.42
2024-01-05T16:03:16.129Z,3.38
2024-01-05T16:05:18.162Z,2.22
2024-01-05T16:07:19.854Z,2.22
2024-01-05T16:09:21.467Z,3.50
2024-01-05T16:11:32.496Z,4.07
2024-01-05T16:13:34.121Z,6.38
2024-01-05T16:15:35.744Z,9.55
2024-01-05T16:17:37.415Z,14.55
2024-01-05T16:19:57.643Z,9.23
2024-01-05T16:21:59.500Z,7.43
2024-01-05T16:24:03.151Z,7.55
2024-01-05T16:26:24.426Z,5.15
2024-01-05T16:28:44.814Z,6.50
2024-01-05T16:31:05.341Z,6.60
2024-01-05T16:33:07.336Z,4.50
2024-01-05T16:35:09.229Z,3.17
2024-01-05T16:37:11.346Z,3.58
2024-01-05T16:39:13.002Z,2.35
2024-01-05T16:41:16.490Z,4.47
2024-01-05T16:43:18.198Z,6.63
2024-01-05T16:45:38.606Z,8.05
2024-01-05T16:47:41.758Z,10.68
2024-01-05T16:49:43.632Z,10.93
2024-01-05T16:51:45.379Z,9.50
2024-01-05T16:53:51.651Z,11.27
2024-01-05T16:55:53.254Z,9.43
2024-01-05T16:57:54.935Z,8.38
2024-01-05T16:59:56.549Z,7.80
2024-01-05T17:01:58.135Z,6.75
2024-01-05T17:04:18.339Z,6.18
2024-01-05T17:06:20.896Z,9.15
2024-01-05T17:08:41.358Z,8.93
2024-01-05T17:10:43.059Z,9.13
2024-01-05T17:12:44.806Z,8.23
2024-01-05T17:14:46.509Z,9.45
2024-01-05T17:16:48.351Z,7.60
2024-01-05T17:18:51.549Z,7.38
2024-01-05T17:20:53.271Z,7.65
2024-01-05T17:22:54.909Z,9.52
2024-01-05T17:24:57.113Z,12.90
2024-01-05T17:27:17.693Z,10.60
2024-01-05T17:29:19.389Z,9.27
2024-01-05T17:31:22.717Z,7.68
2024-01-05T17:33:30.221Z,8.23
2024-01-05T17:35:39.288Z,10.75
2024-01-05T17:37:42.972Z,11.68
2024-01-05T17:39:47.249Z,11.73
2024-01-05T17:41:50.092Z,9.40
2024-01-05T17:44:13.780Z,10.90
2024-01-05T17:46:17.244Z,10.48
2024-01-05T17:48:29.782Z,11.60
2024-01-05T17:50:35.350Z,10.02
2024-01-05T17:52:57.055Z,10.75
2024-01-05T17:55:20.487Z,7.88
2024-01-05T17:57:36.332Z,6.97
2024-01-05T17:59:45.618Z,4.93
2024-01-05T18:01:58.181Z,6.38
2024-01-05T18:04:03.652Z,4.57
2024-01-05T18:06:19.803Z,3.83
2024-01-05T18:08:22.739Z,3.70
2024-01-05T18:10:50.332Z,4.30
2024-01-05T18:12:58.248Z,5.45
2024-01-05T18:15:02.873Z,5.93
2024-01-05T18:17:05.461Z,5.40
2024-01-05T18:19:09.646Z,5.63
2024-01-05T18:21:13.572Z,6.88
2024-01-05T18:23:17.900Z,5.80
2024-01-05T18:25:19.839Z,5.78
2024-01-05T18:27:21.498Z,5.82
2024-01-05T18:29:41.754Z,6.80
2024-01-05T18:32:01.816Z,6.53
2024-01-05T18:34:05.726Z,7.63
2024-01-05T18:36:07.941Z,6.95
2024-01-05T18:38:11.866Z,7.78
2024-01-05T18:40:13.655Z,7.97
2024-01-05T18:42:15.266Z,7.20
2024-01-05T18:44:16.933Z,8.60
2024-01-05T18:46:18.708Z,8.80
2024-01-05T18:48:20.462Z,8.75
2024-01-05T18:50:22.153Z,8.60
2024-01-05T18:52:23.742Z,10.10
2024-01-05T18:54:25.545Z,9.60
2024-01-05T18:56:45.497Z,8.85
2024-01-05T18:59:06.119Z,10.85
2024-01-05T19:01:26.267Z,11.43
2024-01-05T19:03:28.474Z,11.13
2024-01-05T19:05:30.283Z,12.93
2024-01-05T19:07:31.937Z,20.30
2024-01-05T19:09:33.550Z,20.55
2024-01-05T19:11:37.613Z,15.13
2024-01-05T19:13:39.964Z,13.98
2024-01-05T19:15:41.932Z,7.45
2024-01-05T19:17:44.522Z,8.38
2024-01-05T19:19:46.839Z,7.50
2024-01-05T19:21:55.910Z,8.50
2024-01-05T19:23:59.245Z,9.45
2024-01-05T19:26:01.378Z,8.60
2024-01-05T19:28:04.035Z,6.18
2024-01-05T19:30:24.077Z,5.35
2024-01-05T19:32:26.653Z,5.80
2024-01-05T19:34:28.426Z,5.75
2024-01-05T19:36:30.069Z,6.32
2024-01-05T19:38:31.663Z,7.03
2024-01-05T19:40:51.802Z,10.75
2024-01-05T19:42:53.375Z,14.05
2024-01-05T19:44:55.011Z,13.23
2024-01-05T19:46:57.484Z,8.35
2024-01-05T19:48:59.084Z,6.60
2024-01-05T19:51:02.432Z,5.95
2024-01-05T19:53:04.801Z,6.35
2024-01-05T19:55:08.457Z,5.88
2024-01-05T19:57:10.110Z,7.20
2024-01-05T19:59:12.232Z,8.40
2024-01-05T20:01:13.864Z,9.82
2024-01-05T20:03:15.751Z,9.35
2024-01-05T20:05:17.530Z,10.35
2024-01-05T20:07:19.863Z,9.02
2024-01-05T20:09:22.731Z,9.88
2024-01-05T20:11:24.487Z,12.85
2024-01-05T20:13:26.126Z,10.30
2024-01-05T20:15:28.482Z,11.63
2024-01-05T20:17:30.484Z,10.18
2024-01-05T20:19:32.241Z,10.05
2024-01-05T20:21:34.515Z,9.93
2024-01-05T20:23:37.100Z,11.18
2024-01-05T20:25:38.917Z,10.27
2024-01-05T20:27:41.176Z,15.23
2024-01-05T20:29:45.476Z,16.30
2024-01-05T20:31:48.687Z,21.98
2024-01-05T20:33:50.585Z,16.75
2024-01-05T20:35:52.258Z,15.10
2024-01-05T20:37:53.852Z,7.78
2024-01-05T20:39:55.615Z,8.07
2024-01-05T20:41:57.363Z,6.40
2024-01-05T20:43:59.208Z,5.88
2024-01-05T20:46:01.456Z,6.47
2024-01-05T20:48:03.576Z,6.43
2024-01-05T20:50:06.267Z,6.68
2024-01-05T20:52:08.333Z,6.18
2024-01-05T20:54:10.463Z,6.43
2024-01-05T20:56:12.647Z,6.55
2024-01-05T20:58:32.944Z,6.55
2024-01-05T21:00:54.577Z,5.32
2024-01-05T21:02:57.397Z,5.38
2024-01-05T21:04:59.903Z,5.53
2024-01-05T21:07:01.957Z,5.40
2024-01-05T21:09:05.880Z,4.90
2024-01-05T21:11:08.149Z,6.25
2024-01-05T21:13:09.981Z,6.00
2024-01-05T21:15:11.934Z,4.57
2024-01-05T21:17:32.393Z,4.63
2024-01-05T21:19:38.272Z,4.70
2024-01-05T21:21:44.332Z,5.25
2024-01-05T21:23:45.952Z,5.15
2024-01-05T21:25:47.524Z,5.68
2024-01-05T21:27:50.492Z,4.78
2024-01-05T21:29:52.085Z,5.40
2024-01-05T21:31:53.758Z,5.90
2024-01-05T21:33:55.516Z,5.75
2024-01-05T21:35:57.260Z,5.55
2024-01-05T21:37:58.850Z,5.18
2024-01-05T21:40:19.052Z,4.28
2024-01-05T21:42:39.201Z,4.60
2024-01-05T21:44:41.009Z,4.30
2024-01-05T21:46:45.309Z,4.47
2024-01-05T21:48:47.331Z,3.70
2024-01-05T21:51:07.370Z,4.03
2024-01-05T21:53:27.740Z,3.72
2024-01-05T21:55:29.674Z,3.40
2024-01-05T21:57:32.906Z,3.22
2024-01-05T21:59:34.937Z,3.65
2024-01-05T22:01:36.752Z,4.25
2024-01-05T22:03:38.557Z,3.35
2024-01-05T22:05:40.298Z,3.45
2024-01-05T22:07:42.109Z,2.83
2024-01-05T22:09:45.446Z,2.38
2024-01-05T22:11:47.341Z,2.28
2024-01-05T22:13:48.959Z,2.30
2024-01-05T22:15:50.676Z,2.03
2024-01-05T22:17:52.429Z,2.72
2024-01-05T22:19:54.349Z,2.55
2024-01-05T22:21:56.292Z,2.17
2024-01-05T22:23:58.486Z,2.20
2024-01-05T22:26:00.165Z,2.20
2024-01-05T22:28:20.647Z,1.98
2024-01-05T22:30:22.394Z,1.75
2024-01-05T22:32:24.031Z,3.50
2024-01-05T22:34:31.987Z,2.03
2024-01-05T22:36:34.041Z,2.42
2024-01-05T22:38:54.232Z,2.08
2024-01-05T22:40:55.891Z,2.90
2024-01-05T22:42:57.586Z,2.47
2024-01-05T22:44:59.300Z,2.63
2024-01-05T22:47:05.973Z,2.47
2024-01-05T22:49:07.845Z,2.30
2024-01-05T22:51:10.044Z,2.72
2024-01-05T22:53:11.695Z,2.75
2024-01-05T22:55:13.627Z,3.30
2024-01-05T22:57:16.202Z,3.30
2024-01-05T22:59:17.901Z,2.25
2024-01-05T23:01:23.700Z,2.92
2024-01-05T23:03:25.594Z,2.70
2024-01-05T23:05:27.299Z,3.15
2024-01-05T23:07:29.084Z,3.40
2024-01-05T23:09:30.929Z,3.00
2024-01-05T23:11:32.630Z,3.75
2024-01-05T23:13:34.829Z,4.05
2024-01-05T23:15:56.395Z,3.40
2024-01-05T23:17:59.636Z,3.42
2024-01-05T23:20:01.712Z,3.37
2024-01-05T23:22:03.610Z,2.90
2024-01-05T23:24:05.492Z,3.63
2024-01-05T23:26:15.074Z,3.85
2024-01-05T23:28:16.899Z,3.72
2024-01-05T23:30:18.776Z,4.38
2024-01-05T23:32:20.466Z,3.92
2024-01-05T23:34:22.132Z,4.38
2024-01-05T23:36:24.493Z,3.90
2024-01-05T23:38:26.823Z,4.07
2024-01-05T23:40:28.386Z,4.38
2024-01-05T23:42:30.081Z,4.75
2024-01-05T23:44:32.733Z,4.45
2024-01-05T23:46:34.882Z,4.50
2024-01-05T23:48:38.673Z,4.55
2024-01-05T23:50:42.772Z,4.75
2024-01-05T23:52:46.874Z,4.85
2024-01-05T23:56:54.103Z,4.65
